sensor_id;sensor_type;location;lat;lon;timestamp;temperature;humidity
17152;DHT22;8691;50.828;4.700;2023-01-04T00:00:50;9.00;99.90
17152;DHT22;8691;50.828;4.700;2023-01-04T00:03:18;9.00;99.90
17152;DHT22;8691;50.828;4.700;2023-01-04T00:05:45;9.00;99.90
17152;DHT22;8691;50.828;4.700;2023-01-04T00:08:12;9.00;99.90
17152;DHT22;8691;50.828;4.700;2023-01-04T00:10:39;9.00;99.90
17152;DHT22;8691;50.828;4.700;2023-01-04T00:13:06;9.00;99.90
17152;DHT22;8691;50.828;4.700;2023-01-04T00:15:33;9.10;99.90
17152;DHT22;8691;50.828;4.700;2023-01-04T00:18:01;9.20;99.90
17152;DHT22;8691;50.828;4.700;2023-01-04T00:20:28;9.20;99.90
17152;DHT22;8691;50.828;4.700;2023-01-04T00:22:56;9.20;99.90
17152;DHT22;8691;50.828;4.700;2023-01-04T00:25:22;9.30;99.90
17152;DHT22;8691;50.828;4.700;2023-01-04T00:27:49;9.20;99.90
17152;DHT22;8691;50.828;4.700;2023-01-04T00:30:16;9.20;99.90
17152;DHT22;8691;50.828;4.700;2023-01-04T00:32:43;9.20;99.90
17152;DHT22;8691;50.828;4.700;2023-01-04T00:35:11;9.30;99.90
17152;DHT22;8691;50.828;4.700;2023-01-04T00:37:38;9.30;99.90
17152;DHT22;8691;50.828;4.700;2023-01-04T00:40:05;9.30;99.90
17152;DHT22;8691;50.828;4.700;2023-01-04T00:42:33;9.40;99.90
17152;DHT22;8691;50.828;4.700;2023-01-04T00:44:59;9.40;99.90
17152;DHT22;8691;50.828;4.700;2023-01-04T00:47:26;9.40;99.90
17152;DHT22;8691;50.828;4.700;2023-01-04T00:49:53;9.40;99.90
17152;DHT22;8691;50.828;4.700;2023-01-04T00:52:20;9.50;99.90
17152;DHT22;8691;50.828;4.700;2023-01-04T00:54:47;9.50;99.90
17152;DHT22;8691;50.828;4.700;2023-01-04T00:57:14;9.50;99.90
17152;DHT22;8691;50.828;4.700;2023-01-04T00:59:41;9.50;99.90
17152;DHT22;8691;50.828;4.700;2023-01-04T01:02:08;9.50;99.90
17152;DHT22;8691;50.828;4.700;2023-01-04T01:04:35;9.50;99.90
17152;DHT22;8691;50.828;4.700;2023-01-04T01:07:03;9.50;99.90
17152;DHT22;8691;50.828;4.700;2023-01-04T01:09:30;9.40;99.90
17152;DHT22;8691;50.828;4.700;2023-01-04T01:11:57;9.40;99.90
17152;DHT22;8691;50.828;4.700;2023-01-04T01:14:24;9.40;99.90
17152;DHT22;8691;50.828;4.700;2023-01-04T01:16:51;9.40;99.90
17152;DHT22;8691;50.828;4.700;2023-01-04T01:19:18;9.40;99.90
17152;DHT22;8691;50.828;4.700;2023-01-04T01:21:45;9.40;99.90
17152;DHT22;8691;50.828;4.700;2023-01-04T01:24:16;9.40;99.90
17152;DHT22;8691;50.828;4.700;2023-01-04T01:26:42;9.40;99.90
17152;DHT22;8691;50.828;4.700;2023-01-04T01:29:09;9.30;99.90
17152;DHT22;8691;50.828;4.700;2023-01-04T01:31:37;9.40;99.90
17152;DHT22;8691;50.828;4.700;2023-01-04T01:34:03;9.30;99.90
17152;DHT22;8691;50.828;4.700;2023-01-04T01:36:30;9.40;99.90
17152;DHT22;8691;50.828;4.700;2023-01-04T01:38:58;9.40;99.90
17152;DHT22;8691;50.828;4.700;2023-01-04T01:41:26;9.40;99.90
17152;DHT22;8691;50.828;4.700;2023-01-04T01:44:05;9.50;99.90
17152;DHT22;8691;50.828;4.700;2023-01-04T01:46:37;9.50;99.90
17152;DHT22;8691;50.828;4.700;2023-01-04T01:49:18;9.40;99.90
17152;DHT22;8691;50.828;4.700;2023-01-04T01:51:41;9.50;99.90
17152;DHT22;8691;50.828;4.700;2023-01-04T01:54:09;9.50;99.90
17152;DHT22;8691;50.828;4.700;2023-01-04T01:56:35;9.50;99.90
17152;DHT22;8691;50.828;4.700;2023-01-04T01:59:02;9.50;99.90
17152;DHT22;8691;50.828;4.700;2023-01-04T02:01:29;9.40;99.90
17152;DHT22;8691;50.828;4.700;2023-01-04T02:03:55;9.40;99.90
17152;DHT22;8691;50.828;4.700;2023-01-04T02:06:30;9.50;99.90
17152;DHT22;8691;50.828;4.700;2023-01-04T02:08:55;9.50;99.90
17152;DHT22;8691;50.828;4.700;2023-01-04T02:11:22;9.50;99.90
17152;DHT22;8691;50.828;4.700;2023-01-04T02:13:49;9.50;99.90
17152;DHT22;8691;50.828;4.700;2023-01-04T02:17:39;9.50;99.90
17152;DHT22;8691;50.828;4.700;2023-01-04T02:27:40;9.50;99.90
17152;DHT22;8691;50.828;4.700;2023-01-04T02:35:23;9.60;99.90
17152;DHT22;8691;50.828;4.700;2023-01-04T02:40:55;9.60;99.90
17152;DHT22;8691;50.828;4.700;2023-01-04T02:43:34;9.60;99.90
17152;DHT22;8691;50.828;4.700;2023-01-04T02:46:22;9.70;99.90
17152;DHT22;8691;50.828;4.700;2023-01-04T02:48:47;9.70;99.90
17152;DHT22;8691;50.828;4.700;2023-01-04T02:51:33;9.70;99.90
17152;DHT22;8691;50.828;4.700;2023-01-04T02:54:00;9.80;99.90
17152;DHT22;8691;50.828;4.700;2023-01-04T02:56:40;9.80;99.90
17152;DHT22;8691;50.828;4.700;2023-01-04T03:02:01;9.90;99.90
17152;DHT22;8691;50.828;4.700;2023-01-04T03:04:42;9.90;99.90
17152;DHT22;8691;50.828;4.700;2023-01-04T03:07:46;9.80;99.90
17152;DHT22;8691;50.828;4.700;2023-01-04T03:12:46;9.90;99.90
17152;DHT22;8691;50.828;4.700;2023-01-04T03:15:29;9.90;99.90
17152;DHT22;8691;50.828;4.700;2023-01-04T03:17:45;9.90;99.90
17152;DHT22;8691;50.828;4.700;2023-01-04T03:20:10;9.90;99.90
17152;DHT22;8691;50.828;4.700;2023-01-04T03:22:39;10.10;99.90
17152;DHT22;8691;50.828;4.700;2023-01-04T03:25:24;10.00;99.90
17152;DHT22;8691;50.828;4.700;2023-01-04T03:28:08;10.10;99.90
17152;DHT22;8691;50.828;4.700;2023-01-04T03:30:54;10.10;99.90
17152;DHT22;8691;50.828;4.700;2023-01-04T03:33:37;10.20;99.90
17152;DHT22;8691;50.828;4.700;2023-01-04T03:36:35;10.20;99.90
17152;DHT22;8691;50.828;4.700;2023-01-04T03:39:32;10.20;99.90
17152;DHT22;8691;50.828;4.700;2023-01-04T03:42:24;10.20;99.90
17152;DHT22;8691;50.828;4.700;2023-01-04T03:45:11;10.20;99.90
17152;DHT22;8691;50.828;4.700;2023-01-04T03:48:03;10.20;99.90
17152;DHT22;8691;50.828;4.700;2023-01-04T03:50:42;10.20;99.90
17152;DHT22;8691;50.828;4.700;2023-01-04T03:53:08;10.20;99.90
17152;DHT22;8691;50.828;4.700;2023-01-04T03:55:35;10.20;99.90
17152;DHT22;8691;50.828;4.700;2023-01-04T03:58:01;10.20;99.90
17152;DHT22;8691;50.828;4.700;2023-01-04T04:00:28;10.20;99.90
17152;DHT22;8691;50.828;4.700;2023-01-04T04:02:56;10.30;99.90
17152;DHT22;8691;50.828;4.700;2023-01-04T04:05:24;10.30;99.90
17152;DHT22;8691;50.828;4.700;2023-01-04T04:08:09;10.30;99.90
17152;DHT22;8691;50.828;4.700;2023-01-04T04:11:00;10.40;99.90
17152;DHT22;8691;50.828;4.700;2023-01-04T04:13:23;10.50;99.90
17152;DHT22;8691;50.828;4.700;2023-01-04T04:15:53;10.50;99.90
17152;DHT22;8691;50.828;4.700;2023-01-04T04:18:21;10.60;99.90
17152;DHT22;8691;50.828;4.700;2023-01-04T04:20:49;10.60;99.90
17152;DHT22;8691;50.828;4.700;2023-01-04T04:23:14;10.60;99.90
17152;DHT22;8691;50.828;4.700;2023-01-04T04:25:42;10.70;99.90
17152;DHT22;8691;50.828;4.700;2023-01-04T04:28:09;10.70;99.90
17152;DHT22;8691;50.828;4.700;2023-01-04T04:30:36;10.80;99.90
17152;DHT22;8691;50.828;4.700;2023-01-04T04:33:03;10.80;99.90
17152;DHT22;8691;50.828;4.700;2023-01-04T04:35:29;10.90;99.90
17152;DHT22;8691;50.828;4.700;2023-01-04T04:37:56;10.80;99.90
17152;DHT22;8691;50.828;4.700;2023-01-04T04:40:23;10.70;99.90
17152;DHT22;8691;50.828;4.700;2023-01-04T04:43:08;10.80;99.90
17152;DHT22;8691;50.828;4.700;2023-01-04T04:45:35;10.80;99.90
17152;DHT22;8691;50.828;4.700;2023-01-04T04:48:02;10.80;99.90
17152;DHT22;8691;50.828;4.700;2023-01-04T04:50:29;10.90;99.90
17152;DHT22;8691;50.828;4.700;2023-01-04T04:52:56;11.00;99.90
17152;DHT22;8691;50.828;4.700;2023-01-04T04:55:24;11.00;99.90
17152;DHT22;8691;50.828;4.700;2023-01-04T04:57:51;11.00;99.90
17152;DHT22;8691;50.828;4.700;2023-01-04T05:00:18;11.00;99.90
17152;DHT22;8691;50.828;4.700;2023-01-04T05:02:45;11.00;99.90
17152;DHT22;8691;50.828;4.700;2023-01-04T05:05:12;11.10;99.90
17152;DHT22;8691;50.828;4.700;2023-01-04T05:07:39;11.00;99.90
17152;DHT22;8691;50.828;4.700;2023-01-04T05:10:05;11.00;99.90
17152;DHT22;8691;50.828;4.700;2023-01-04T05:12:32;11.00;99.90
17152;DHT22;8691;50.828;4.700;2023-01-04T05:15:17;11.10;99.90
17152;DHT22;8691;50.828;4.700;2023-01-04T05:17:44;11.00;99.90
17152;DHT22;8691;50.828;4.700;2023-01-04T05:20:11;11.20;99.90
17152;DHT22;8691;50.828;4.700;2023-01-04T05:22:39;11.20;99.90
17152;DHT22;8691;50.828;4.700;2023-01-04T05:25:07;11.30;99.90
17152;DHT22;8691;50.828;4.700;2023-01-04T05:27:34;11.30;99.90
17152;DHT22;8691;50.828;4.700;2023-01-04T05:30:02;11.30;99.90
17152;DHT22;8691;50.828;4.700;2023-01-04T05:32:46;11.30;99.90
17152;DHT22;8691;50.828;4.700;2023-01-04T05:35:13;11.40;99.90
17152;DHT22;8691;50.828;4.700;2023-01-04T05:37:41;11.40;99.90
17152;DHT22;8691;50.828;4.700;2023-01-04T05:40:07;11.30;99.90
17152;DHT22;8691;50.828;4.700;2023-01-04T05:42:34;11.30;99.90
17152;DHT22;8691;50.828;4.700;2023-01-04T05:45:01;11.30;99.90
17152;DHT22;8691;50.828;4.700;2023-01-04T05:47:28;11.20;99.90
17152;DHT22;8691;50.828;4.700;2023-01-04T05:49:55;11.20;99.90
17152;DHT22;8691;50.828;4.700;2023-01-04T05:52:22;11.20;99.90
17152;DHT22;8691;50.828;4.700;2023-01-04T05:54:50;11.20;99.90
17152;DHT22;8691;50.828;4.700;2023-01-04T05:57:16;11.20;99.90
17152;DHT22;8691;50.828;4.700;2023-01-04T05:59:43;11.20;99.90
17152;DHT22;8691;50.828;4.700;2023-01-04T06:02:20;11.30;99.90
17152;DHT22;8691;50.828;4.700;2023-01-04T06:04:46;11.30;99.90
17152;DHT22;8691;50.828;4.700;2023-01-04T06:07:13;11.40;99.90
17152;DHT22;8691;50.828;4.700;2023-01-04T06:09:40;11.30;99.90
17152;DHT22;8691;50.828;4.700;2023-01-04T06:12:07;11.40;99.90
17152;DHT22;8691;50.828;4.700;2023-01-04T06:14:34;11.50;99.90
17152;DHT22;8691;50.828;4.700;2023-01-04T06:17:01;11.60;99.90
17152;DHT22;8691;50.828;4.700;2023-01-04T06:19:28;11.50;99.90
17152;DHT22;8691;50.828;4.700;2023-01-04T06:21:55;11.50;99.90
17152;DHT22;8691;50.828;4.700;2023-01-04T06:24:22;11.50;99.90
17152;DHT22;8691;50.828;4.700;2023-01-04T06:26:49;11.50;99.90
17152;DHT22;8691;50.828;4.700;2023-01-04T06:29:16;11.50;99.90
17152;DHT22;8691;50.828;4.700;2023-01-04T06:31:43;11.40;99.90
17152;DHT22;8691;50.828;4.700;2023-01-04T06:34:13;11.50;99.90
17152;DHT22;8691;50.828;4.700;2023-01-04T06:36:39;11.40;99.90
17152;DHT22;8691;50.828;4.700;2023-01-04T06:39:06;11.40;99.90
17152;DHT22;8691;50.828;4.700;2023-01-04T06:41:33;11.40;99.90
17152;DHT22;8691;50.828;4.700;2023-01-04T06:44:00;11.40;99.90
17152;DHT22;8691;50.828;4.700;2023-01-04T06:46:27;11.40;99.90
17152;DHT22;8691;50.828;4.700;2023-01-04T06:48:53;11.30;99.90
17152;DHT22;8691;50.828;4.700;2023-01-04T06:51:20;11.30;99.90
17152;DHT22;8691;50.828;4.700;2023-01-04T06:53:47;11.30;99.90
17152;DHT22;8691;50.828;4.700;2023-01-04T06:56:14;11.30;99.90
17152;DHT22;8691;50.828;4.700;2023-01-04T06:58:41;11.30;99.90
17152;DHT22;8691;50.828;4.700;2023-01-04T07:01:08;11.30;99.90
17152;DHT22;8691;50.828;4.700;2023-01-04T07:03:35;11.20;99.90
17152;DHT22;8691;50.828;4.700;2023-01-04T07:06:05;11.40;99.90
17152;DHT22;8691;50.828;4.700;2023-01-04T07:08:32;11.30;99.90
17152;DHT22;8691;50.828;4.700;2023-01-04T07:10:58;11.30;99.90
17152;DHT22;8691;50.828;4.700;2023-01-04T07:13:25;11.30;99.90
17152;DHT22;8691;50.828;4.700;2023-01-04T07:15:52;11.30;99.90
17152;DHT22;8691;50.828;4.700;2023-01-04T07:18:19;11.30;99.90
17152;DHT22;8691;50.828;4.700;2023-01-04T07:20:46;11.30;99.90
17152;DHT22;8691;50.828;4.700;2023-01-04T07:23:13;11.40;99.90
17152;DHT22;8691;50.828;4.700;2023-01-04T07:25:39;11.50;99.90
17152;DHT22;8691;50.828;4.700;2023-01-04T07:28:07;11.50;99.90
17152;DHT22;8691;50.828;4.700;2023-01-04T07:30:34;11.50;99.90
17152;DHT22;8691;50.828;4.700;2023-01-04T07:33:01;11.60;99.90
17152;DHT22;8691;50.828;4.700;2023-01-04T07:35:28;11.60;99.90
17152;DHT22;8691;50.828;4.700;2023-01-04T07:37:55;11.60;99.90
17152;DHT22;8691;50.828;4.700;2023-01-04T07:40:22;11.80;99.90
17152;DHT22;8691;50.828;4.700;2023-01-04T07:42:53;11.80;99.90
17152;DHT22;8691;50.828;4.700;2023-01-04T07:45:19;11.70;99.90
17152;DHT22;8691;50.828;4.700;2023-01-04T07:47:46;11.80;99.90
17152;DHT22;8691;50.828;4.700;2023-01-04T07:50:13;11.90;99.90
17152;DHT22;8691;50.828;4.700;2023-01-04T07:52:39;11.80;99.90
17152;DHT22;8691;50.828;4.700;2023-01-04T07:55:06;11.70;99.90
17152;DHT22;8691;50.828;4.700;2023-01-04T07:57:33;11.80;99.90
17152;DHT22;8691;50.828;4.700;2023-01-04T08:00:00;11.90;99.90
17152;DHT22;8691;50.828;4.700;2023-01-04T08:02:28;11.80;99.90
17152;DHT22;8691;50.828;4.700;2023-01-04T08:04:55;11.80;99.90
17152;DHT22;8691;50.828;4.700;2023-01-04T08:07:22;11.80;99.90
17152;DHT22;8691;50.828;4.700;2023-01-04T08:09:49;11.80;99.90
17152;DHT22;8691;50.828;4.700;2023-01-04T08:12:16;11.80;99.90
17152;DHT22;8691;50.828;4.700;2023-01-04T08:14:43;11.80;99.90
17152;DHT22;8691;50.828;4.700;2023-01-04T08:17:09;11.90;99.90
17152;DHT22;8691;50.828;4.700;2023-01-04T08:19:36;11.90;99.90
17152;DHT22;8691;50.828;4.700;2023-01-04T08:22:03;11.90;99.90
17152;DHT22;8691;50.828;4.700;2023-01-04T08:24:30;11.90;99.90
17152;DHT22;8691;50.828;4.700;2023-01-04T08:26:57;11.90;99.90
17152;DHT22;8691;50.828;4.700;2023-01-04T08:29:24;11.80;99.90
17152;DHT22;8691;50.828;4.700;2023-01-04T08:31:51;11.80;99.90
17152;DHT22;8691;50.828;4.700;2023-01-04T08:34:18;11.70;99.90
17152;DHT22;8691;50.828;4.700;2023-01-04T08:36:49;11.70;99.90
17152;DHT22;8691;50.828;4.700;2023-01-04T08:39:16;11.70;99.90
17152;DHT22;8691;50.828;4.700;2023-01-04T08:41:43;11.80;99.90
17152;DHT22;8691;50.828;4.700;2023-01-04T08:44:19;11.80;99.90
17152;DHT22;8691;50.828;4.700;2023-01-04T08:46:46;11.90;99.90
17152;DHT22;8691;50.828;4.700;2023-01-04T08:49:13;11.90;99.90
17152;DHT22;8691;50.828;4.700;2023-01-04T08:51:40;11.90;99.90
17152;DHT22;8691;50.828;4.700;2023-01-04T08:54:07;11.90;99.90
17152;DHT22;8691;50.828;4.700;2023-01-04T08:56:34;11.90;99.90
17152;DHT22;8691;50.828;4.700;2023-01-04T08:59:01;12.00;99.90
17152;DHT22;8691;50.828;4.700;2023-01-04T09:01:28;12.00;99.90
17152;DHT22;8691;50.828;4.700;2023-01-04T09:03:55;12.10;99.90
17152;DHT22;8691;50.828;4.700;2023-01-04T09:06:22;12.00;99.90
17152;DHT22;8691;50.828;4.700;2023-01-04T09:08:49;12.00;99.90
17152;DHT22;8691;50.828;4.700;2023-01-04T09:11:19;12.00;99.90
17152;DHT22;8691;50.828;4.700;2023-01-04T09:13:43;12.10;99.90
17152;DHT22;8691;50.828;4.700;2023-01-04T09:16:13;12.10;99.90
17152;DHT22;8691;50.828;4.700;2023-01-04T09:18:39;12.10;99.90
17152;DHT22;8691;50.828;4.700;2023-01-04T09:21:11;12.20;99.90
17152;DHT22;8691;50.828;4.700;2023-01-04T09:23:34;12.40;99.90
17152;DHT22;8691;50.828;4.700;2023-01-04T09:26:04;12.40;99.90
17152;DHT22;8691;50.828;4.700;2023-01-04T09:28:30;12.30;99.90
17152;DHT22;8691;50.828;4.700;2023-01-04T09:30:57;12.50;99.90
17152;DHT22;8691;50.828;4.700;2023-01-04T09:33:24;12.40;99.90
17152;DHT22;8691;50.828;4.700;2023-01-04T09:35:51;12.40;99.90
17152;DHT22;8691;50.828;4.700;2023-01-04T09:38:17;12.40;99.90
17152;DHT22;8691;50.828;4.700;2023-01-04T09:43:27;12.60;99.90
17152;DHT22;8691;50.828;4.700;2023-01-04T09:45:55;12.60;99.90
17152;DHT22;8691;50.828;4.700;2023-01-04T09:48:22;12.60;99.90
17152;DHT22;8691;50.828;4.700;2023-01-04T09:50:50;12.60;99.90
17152;DHT22;8691;50.828;4.700;2023-01-04T09:53:27;12.50;99.90
17152;DHT22;8691;50.828;4.700;2023-01-04T09:55:55;12.60;99.90
17152;DHT22;8691;50.828;4.700;2023-01-04T09:58:30;12.60;99.90
17152;DHT22;8691;50.828;4.700;2023-01-04T10:01:02;12.50;99.90
17152;DHT22;8691;50.828;4.700;2023-01-04T10:03:32;12.40;99.90
17152;DHT22;8691;50.828;4.700;2023-01-04T10:05:59;12.40;99.90
17152;DHT22;8691;50.828;4.700;2023-01-04T10:08:25;12.40;99.90
17152;DHT22;8691;50.828;4.700;2023-01-04T10:21:43;12.30;99.90
17152;DHT22;8691;50.828;4.700;2023-01-04T10:26:48;12.40;99.90
17152;DHT22;8691;50.828;4.700;2023-01-04T10:34:50;12.10;99.90
17152;DHT22;8691;50.828;4.700;2023-01-04T10:37:19;12.10;99.90
17152;DHT22;8691;50.828;4.700;2023-01-04T10:39:44;12.10;99.90
17152;DHT22;8691;50.828;4.700;2023-01-04T10:44:55;12.20;99.90
17152;DHT22;8691;50.828;4.700;2023-01-04T10:47:28;12.10;99.90
17152;DHT22;8691;50.828;4.700;2023-01-04T10:50:00;12.00;99.90
17152;DHT22;8691;50.828;4.700;2023-01-04T10:52:29;12.00;99.90
17152;DHT22;8691;50.828;4.700;2023-01-04T10:55:06;12.00;99.90
17152;DHT22;8691;50.828;4.700;2023-01-04T10:57:51;12.00;99.90
17152;DHT22;8691;50.828;4.700;2023-01-04T11:00:09;12.00;99.90
17152;DHT22;8691;50.828;4.700;2023-01-04T11:02:35;11.90;99.90
17152;DHT22;8691;50.828;4.700;2023-01-04T11:05:44;11.90;99.90
17152;DHT22;8691;50.828;4.700;2023-01-04T11:07:39;12.00;99.90
17152;DHT22;8691;50.828;4.700;2023-01-04T11:10:25;12.00;99.90
17152;DHT22;8691;50.828;4.700;2023-01-04T11:12:49;12.00;99.90
17152;DHT22;8691;50.828;4.700;2023-01-04T11:15:16;12.00;99.90
17152;DHT22;8691;50.828;4.700;2023-01-04T11:17:43;12.00;99.90
17152;DHT22;8691;50.828;4.700;2023-01-04T11:20:10;12.10;99.90
17152;DHT22;8691;50.828;4.700;2023-01-04T11:22:40;12.10;99.90
17152;DHT22;8691;50.828;4.700;2023-01-04T11:25:06;12.20;99.90
17152;DHT22;8691;50.828;4.700;2023-01-04T11:27:34;12.20;99.90
17152;DHT22;8691;50.828;4.700;2023-01-04T11:30:13;12.20;99.90
17152;DHT22;8691;50.828;4.700;2023-01-04T11:32:43;12.30;99.90
17152;DHT22;8691;50.828;4.700;2023-01-04T11:35:08;12.30;99.90
17152;DHT22;8691;50.828;4.700;2023-01-04T11:37:38;12.40;99.90
17152;DHT22;8691;50.828;4.700;2023-01-04T11:42:44;12.30;99.90
17152;DHT22;8691;50.828;4.700;2023-01-04T11:45:21;12.40;99.90
17152;DHT22;8691;50.828;4.700;2023-01-04T11:47:46;12.50;99.90
17152;DHT22;8691;50.828;4.700;2023-01-04T11:50:25;12.40;99.90
17152;DHT22;8691;50.828;4.700;2023-01-04T11:52:39;12.30;99.90
17152;DHT22;8691;50.828;4.700;2023-01-04T11:55:23;12.40;99.90
17152;DHT22;8691;50.828;4.700;2023-01-04T11:58:12;12.40;99.90
17152;DHT22;8691;50.828;4.700;2023-01-04T12:00:34;12.40;99.90
17152;DHT22;8691;50.828;4.700;2023-01-04T12:03:14;12.30;99.90
17152;DHT22;8691;50.828;4.700;2023-01-04T12:05:40;12.40;99.90
17152;DHT22;8691;50.828;4.700;2023-01-04T12:08:25;12.30;99.90
17152;DHT22;8691;50.828;4.700;2023-01-04T12:10:35;12.30;99.90
17152;DHT22;8691;50.828;4.700;2023-01-04T12:13:02;12.30;99.90
17152;DHT22;8691;50.828;4.700;2023-01-04T12:15:44;12.30;99.90
17152;DHT22;8691;50.828;4.700;2023-01-04T12:18:06;12.30;99.90
17152;DHT22;8691;50.828;4.700;2023-01-04T12:20:32;12.40;99.90
17152;DHT22;8691;50.828;4.700;2023-01-04T12:22:59;12.40;99.90
17152;DHT22;8691;50.828;4.700;2023-01-04T12:27:59;12.50;99.90
17152;DHT22;8691;50.828;4.700;2023-01-04T12:30:42;12.50;99.90
17152;DHT22;8691;50.828;4.700;2023-01-04T12:36:06;12.60;99.90
17152;DHT22;8691;50.828;4.700;2023-01-04T12:41:21;12.50;99.90
17152;DHT22;8691;50.828;4.700;2023-01-04T12:43:47;12.60;99.90
17152;DHT22;8691;50.828;4.700;2023-01-04T12:54:49;12.70;99.90
17152;DHT22;8691;50.828;4.700;2023-01-04T12:59:58;12.90;99.90
17152;DHT22;8691;50.828;4.700;2023-01-04T13:02:25;12.80;99.90
17152;DHT22;8691;50.828;4.700;2023-01-04T13:04:52;12.80;99.90
17152;DHT22;8691;50.828;4.700;2023-01-04T13:07:30;12.80;99.90
17152;DHT22;8691;50.828;4.700;2023-01-04T13:10:00;12.80;99.90
17152;DHT22;8691;50.828;4.700;2023-01-04T13:12:45;12.80;99.90
17152;DHT22;8691;50.828;4.700;2023-01-04T13:15:18;12.80;99.90
17152;DHT22;8691;50.828;4.700;2023-01-04T13:17:42;12.80;99.90
17152;DHT22;8691;50.828;4.700;2023-01-04T13:20:16;12.80;99.90
17152;DHT22;8691;50.828;4.700;2023-01-04T13:22:45;12.80;99.90
17152;DHT22;8691;50.828;4.700;2023-01-04T13:25:10;12.80;99.90
17152;DHT22;8691;50.828;4.700;2023-01-04T13:27:35;12.80;99.90
17152;DHT22;8691;50.828;4.700;2023-01-04T13:30:02;12.70;99.90
17152;DHT22;8691;50.828;4.700;2023-01-04T13:32:32;12.80;99.90
17152;DHT22;8691;50.828;4.700;2023-01-04T13:35:03;12.90;99.90
17152;DHT22;8691;50.828;4.700;2023-01-04T13:37:33;12.90;99.90
17152;DHT22;8691;50.828;4.700;2023-01-04T13:40:22;13.00;99.90
17152;DHT22;8691;50.828;4.700;2023-01-04T13:42:47;13.10;99.90
17152;DHT22;8691;50.828;4.700;2023-01-04T13:45:31;13.10;99.90
17152;DHT22;8691;50.828;4.700;2023-01-04T13:47:56;13.20;99.90
17152;DHT22;8691;50.828;4.700;2023-01-04T13:50:30;13.30;99.90
17152;DHT22;8691;50.828;4.700;2023-01-04T13:52:55;13.30;99.90
17152;DHT22;8691;50.828;4.700;2023-01-04T13:55:29;13.30;99.90
17152;DHT22;8691;50.828;4.700;2023-01-04T13:57:58;13.30;99.90
17152;DHT22;8691;50.828;4.700;2023-01-04T14:00:25;13.30;99.90
17152;DHT22;8691;50.828;4.700;2023-01-04T14:05:29;13.30;99.90
17152;DHT22;8691;50.828;4.700;2023-01-04T14:07:57;13.30;99.90
17152;DHT22;8691;50.828;4.700;2023-01-04T14:10:24;13.30;99.90
17152;DHT22;8691;50.828;4.700;2023-01-04T14:12:51;13.30;99.90
17152;DHT22;8691;50.828;4.700;2023-01-04T14:15:24;13.30;99.90
17152;DHT22;8691;50.828;4.700;2023-01-04T14:17:54;13.20;99.90
17152;DHT22;8691;50.828;4.700;2023-01-04T14:30:45;13.00;99.90
17152;DHT22;8691;50.828;4.700;2023-01-04T14:33:16;12.90;99.90
17152;DHT22;8691;50.828;4.700;2023-01-04T14:35:41;12.90;99.90
17152;DHT22;8691;50.828;4.700;2023-01-04T14:38:15;12.90;99.90
17152;DHT22;8691;50.828;4.700;2023-01-04T14:40:40;13.00;99.90
17152;DHT22;8691;50.828;4.700;2023-01-04T14:43:32;13.00;99.90
17152;DHT22;8691;50.828;4.700;2023-01-04T14:45:55;13.00;99.90
17152;DHT22;8691;50.828;4.700;2023-01-04T14:48:22;13.00;99.90
17152;DHT22;8691;50.828;4.700;2023-01-04T14:50:49;13.10;99.90
17152;DHT22;8691;50.828;4.700;2023-01-04T14:53:16;13.00;99.90
17152;DHT22;8691;50.828;4.700;2023-01-04T14:55:43;12.90;99.90
17152;DHT22;8691;50.828;4.700;2023-01-04T14:58:10;12.90;99.90
17152;DHT22;8691;50.828;4.700;2023-01-04T15:00:36;13.00;99.90
17152;DHT22;8691;50.828;4.700;2023-01-04T15:03:03;13.00;99.90
17152;DHT22;8691;50.828;4.700;2023-01-04T15:05:30;13.00;99.90
17152;DHT22;8691;50.828;4.700;2023-01-04T15:07:57;13.00;99.90
17152;DHT22;8691;50.828;4.700;2023-01-04T15:10:25;13.00;99.90
17152;DHT22;8691;50.828;4.700;2023-01-04T15:12:51;12.90;99.90
17152;DHT22;8691;50.828;4.700;2023-01-04T15:15:18;13.00;99.90
17152;DHT22;8691;50.828;4.700;2023-01-04T15:17:45;13.00;99.90
17152;DHT22;8691;50.828;4.700;2023-01-04T15:20:12;12.90;99.90
17152;DHT22;8691;50.828;4.700;2023-01-04T15:22:39;12.90;99.90
17152;DHT22;8691;50.828;4.700;2023-01-04T15:25:06;12.90;99.90
17152;DHT22;8691;50.828;4.700;2023-01-04T15:27:33;12.90;99.90
17152;DHT22;8691;50.828;4.700;2023-01-04T15:30:00;12.90;99.90
17152;DHT22;8691;50.828;4.700;2023-01-04T15:32:27;12.80;99.90
17152;DHT22;8691;50.828;4.700;2023-01-04T15:34:54;13.00;99.90
17152;DHT22;8691;50.828;4.700;2023-01-04T15:37:21;12.90;99.90
17152;DHT22;8691;50.828;4.700;2023-01-04T15:39:49;13.10;99.90
17152;DHT22;8691;50.828;4.700;2023-01-04T15:42:16;13.10;99.90
17152;DHT22;8691;50.828;4.700;2023-01-04T15:45:00;13.00;99.90
17152;DHT22;8691;50.828;4.700;2023-01-04T15:47:28;13.10;99.90
17152;DHT22;8691;50.828;4.700;2023-01-04T15:49:55;13.00;99.90
17152;DHT22;8691;50.828;4.700;2023-01-04T15:52:22;13.10;99.90
17152;DHT22;8691;50.828;4.700;2023-01-04T15:54:49;13.00;99.90
17152;DHT22;8691;50.828;4.700;2023-01-04T15:57:16;13.00;99.90
17152;DHT22;8691;50.828;4.700;2023-01-04T15:59:44;13.00;99.90
17152;DHT22;8691;50.828;4.700;2023-01-04T16:02:10;13.10;99.90
17152;DHT22;8691;50.828;4.700;2023-01-04T16:04:37;13.10;99.90
17152;DHT22;8691;50.828;4.700;2023-01-04T16:07:03;13.10;99.90
17152;DHT22;8691;50.828;4.700;2023-01-04T16:09:30;13.10;99.90
17152;DHT22;8691;50.828;4.700;2023-01-04T16:11:58;13.00;99.90
17152;DHT22;8691;50.828;4.700;2023-01-04T16:14:42;13.00;99.90
17152;DHT22;8691;50.828;4.700;2023-01-04T16:17:09;12.90;99.90
17152;DHT22;8691;50.828;4.700;2023-01-04T16:19:36;12.90;99.90
17152;DHT22;8691;50.828;4.700;2023-01-04T16:22:03;12.90;99.90
17152;DHT22;8691;50.828;4.700;2023-01-04T16:24:30;12.80;99.90
17152;DHT22;8691;50.828;4.700;2023-01-04T16:26:57;12.80;99.90
17152;DHT22;8691;50.828;4.700;2023-01-04T16:29:24;12.80;99.90
17152;DHT22;8691;50.828;4.700;2023-01-04T16:31:51;12.80;99.90
17152;DHT22;8691;50.828;4.700;2023-01-04T16:34:18;12.90;99.90
17152;DHT22;8691;50.828;4.700;2023-01-04T16:36:44;12.80;99.90
17152;DHT22;8691;50.828;4.700;2023-01-04T16:39:11;12.70;99.90
17152;DHT22;8691;50.828;4.700;2023-01-04T16:41:38;12.70;99.90
17152;DHT22;8691;50.828;4.700;2023-01-04T16:44:05;12.70;99.90
17152;DHT22;8691;50.828;4.700;2023-01-04T16:46:35;12.70;99.90
17152;DHT22;8691;50.828;4.700;2023-01-04T16:49:09;12.70;99.90
17152;DHT22;8691;50.828;4.700;2023-01-04T16:51:32;12.70;99.90
17152;DHT22;8691;50.828;4.700;2023-01-04T16:53:58;12.70;99.90
17152;DHT22;8691;50.828;4.700;2023-01-04T16:56:25;12.70;99.90
17152;DHT22;8691;50.828;4.700;2023-01-04T16:58:51;12.60;99.90
17152;DHT22;8691;50.828;4.700;2023-01-04T17:01:22;12.60;99.90
17152;DHT22;8691;50.828;4.700;2023-01-04T17:03:48;12.60;99.90
17152;DHT22;8691;50.828;4.700;2023-01-04T17:06:16;12.60;99.90
17152;DHT22;8691;50.828;4.700;2023-01-04T17:08:43;12.60;99.90
17152;DHT22;8691;50.828;4.700;2023-01-04T17:11:14;12.70;99.90
17152;DHT22;8691;50.828;4.700;2023-01-04T17:13:37;12.70;99.90
17152;DHT22;8691;50.828;4.700;2023-01-04T17:16:05;12.70;99.90
17152;DHT22;8691;50.828;4.700;2023-01-04T17:18:32;12.70;99.90
17152;DHT22;8691;50.828;4.700;2023-01-04T17:20:59;12.60;99.90
17152;DHT22;8691;50.828;4.700;2023-01-04T17:23:26;12.50;99.90